sensor_id;sensor_type;location;lat;lon;timestamp;P1;durP1;ratioP1;P2;durP2;ratioP2
75912;SDS011;64592;52.168;21.040;2023-02-01T00:02:54;9.02;;;4.05;;
75912;SDS011;64592;52.168;21.040;2023-02-01T00:07:55;8.52;;;4.25;;
75912;SDS011;64592;52.168;21.040;2023-02-01T00:12:58;8.45;;;4.57;;
75912;SDS011;64592;52.168;21.040;2023-02-01T00:18:00;6.60;;;4.47;;
75912;SDS011;64592;52.168;21.040;2023-02-01T00:23:02;8.98;;;4.38;;
75912;SDS011;64592;52.168;21.040;2023-02-01T00:28:05;8.20;;;5.43;;
75912;SDS011;64592;52.168;21.040;2023-02-01T00:33:07;5.22;;;3.40;;
75912;SDS011;64592;52.168;21.040;2023-02-01T00:38:08;7.50;;;4.85;;
75912;SDS011;64592;52.168;21.040;2023-02-01T00:43:11;10.27;;;5.00;;
75912;SDS011;64592;52.168;21.040;2023-02-01T00:48:13;8.85;;;5.30;;
75912;SDS011;64592;52.168;21.040;2023-02-01T00:53:15;9.43;;;5.18;;
75912;SDS011;64592;52.168;21.040;2023-02-01T00:58:18;8.38;;;5.00;;
75912;SDS011;64592;52.168;21.040;2023-02-01T01:03:20;4.57;;;3.28;;
75912;SDS011;64592;52.168;21.040;2023-02-01T01:08:21;5.63;;;3.92;;
75912;SDS011;64592;52.168;21.040;2023-02-01T01:13:24;3.53;;;2.47;;
75912;SDS011;64592;52.168;21.040;2023-02-01T01:18:26;5.50;;;2.28;;
75912;SDS011;64592;52.168;21.040;2023-02-01T01:23:28;4.40;;;1.88;;
75912;SDS011;64592;52.168;21.040;2023-02-01T01:28:31;6.97;;;2.05;;
75912;SDS011;64592;52.168;21.040;2023-02-01T01:33:33;3.72;;;1.90;;
75912;SDS011;64592;52.168;21.040;2023-02-01T01:38:35;2.92;;;1.80;;
75912;SDS011;64592;52.168;21.040;2023-02-01T01:43:48;1.65;;;1.10;;
75912;SDS011;64592;52.168;21.040;2023-02-01T01:48:53;3.08;;;1.63;;
75912;SDS011;64592;52.168;21.040;2023-02-01T01:54:02;3.67;;;1.73;;
75912;SDS011;64592;52.168;21.040;2023-02-01T01:59:09;5.22;;;1.95;;
75912;SDS011;64592;52.168;21.040;2023-02-01T02:04:11;5.15;;;1.60;;
75912;SDS011;64592;52.168;21.040;2023-02-01T02:09:13;4.50;;;2.17;;
75912;SDS011;64592;52.168;21.040;2023-02-01T02:14:17;7.63;;;2.30;;
75912;SDS011;64592;52.168;21.040;2023-02-01T02:19:30;4.85;;;1.60;;
75912;SDS011;64592;52.168;21.040;2023-02-01T02:24:54;4.95;;;2.30;;
75912;SDS011;64592;52.168;21.040;2023-02-01T02:35:54;8.40;;;2.38;;
75912;SDS011;64592;52.168;21.040;2023-02-01T02:41:03;7.03;;;2.88;;
75912;SDS011;64592;52.168;21.040;2023-02-01T02:46:12;5.72;;;2.67;;
75912;SDS011;64592;52.168;21.040;2023-02-01T02:51:41;2.78;;;2.03;;
75912;SDS011;64592;52.168;21.040;2023-02-01T02:57:05;4.13;;;1.95;;
75912;SDS011;64592;52.168;21.040;2023-02-01T03:02:28;4.97;;;1.88;;
75912;SDS011;64592;52.168;21.040;2023-02-01T03:08:00;6.28;;;2.22;;
75912;SDS011;64592;52.168;21.040;2023-02-01T03:13:05;7.05;;;2.35;;
75912;SDS011;64592;52.168;21.040;2023-02-01T03:18:11;15.90;;;2.67;;
75912;SDS011;64592;52.168;21.040;2023-02-01T03:23:18;4.30;;;1.90;;
75912;SDS011;64592;52.168;21.040;2023-02-01T03:28:23;8.55;;;3.08;;
75912;SDS011;64592;52.168;21.040;2023-02-01T03:33:29;9.15;;;2.97;;
75912;SDS011;64592;52.168;21.040;2023-02-01T03:38:33;4.47;;;2.10;;
75912;SDS011;64592;52.168;21.040;2023-02-01T03:43:42;7.78;;;3.38;;
75912;SDS011;64592;52.168;21.040;2023-02-01T03:48:51;7.80;;;2.70;;
75912;SDS011;64592;52.168;21.040;2023-02-01T03:53:56;3.30;;;1.73;;
75912;SDS011;64592;52.168;21.040;2023-02-01T03:59:00;4.70;;;1.90;;
75912;SDS011;64592;52.168;21.040;2023-02-01T04:04:02;12.98;;;2.75;;
75912;SDS011;64592;52.168;21.040;2023-02-01T04:09:05;7.60;;;2.28;;
75912;SDS011;64592;52.168;21.040;2023-02-01T04:14:07;5.85;;;3.55;;
75912;SDS011;64592;52.168;21.040;2023-02-01T04:19:09;9.18;;;2.28;;
75912;SDS011;64592;52.168;21.040;2023-02-01T04:24:12;7.68;;;2.08;;
75912;SDS011;64592;52.168;21.040;2023-02-01T04:29:13;16.17;;;3.00;;
75912;SDS011;64592;52.168;21.040;2023-02-01T04:34:15;7.03;;;2.55;;
75912;SDS011;64592;52.168;21.040;2023-02-01T04:39:18;1.17;;;0.95;;
75912;SDS011;64592;52.168;21.040;2023-02-01T04:44:20;4.63;;;2.40;;
75912;SDS011;64592;52.168;21.040;2023-02-01T04:49:22;5.45;;;1.85;;
75912;SDS011;64592;52.168;21.040;2023-02-01T04:54:26;6.80;;;1.85;;
75912;SDS011;64592;52.168;21.040;2023-02-01T04:59:28;5.82;;;1.80;;
75912;SDS011;64592;52.168;21.040;2023-02-01T05:04:30;6.07;;;1.98;;
75912;SDS011;64592;52.168;21.040;2023-02-01T05:09:33;6.30;;;1.85;;
75912;SDS011;64592;52.168;21.040;2023-02-01T05:14:35;7.40;;;2.30;;
75912;SDS011;64592;52.168;21.040;2023-02-01T05:19:36;5.15;;;2.40;;
75912;SDS011;64592;52.168;21.040;2023-02-01T05:24:39;6.68;;;2.33;;
75912;SDS011;64592;52.168;21.040;2023-02-01T05:29:41;5.80;;;2.50;;
75912;SDS011;64592;52.168;21.040;2023-02-01T05:34:43;8.15;;;3.30;;
75912;SDS011;64592;52.168;21.040;2023-02-01T05:39:46;10.65;;;2.22;;
75912;SDS011;64592;52.168;21.040;2023-02-01T05:44:47;8.50;;;2.80;;
75912;SDS011;64592;52.168;21.040;2023-02-01T05:49:49;6.03;;;3.03;;
75912;SDS011;64592;52.168;21.040;2023-02-01T05:54:52;9.55;;;2.58;;
75912;SDS011;64592;52.168;21.040;2023-02-01T05:59:54;6.40;;;2.33;;
75912;SDS011;64592;52.168;21.040;2023-02-01T06:04:55;9.27;;;2.10;;
75912;SDS011;64592;52.168;21.040;2023-02-01T06:09:58;2.85;;;1.73;;
75912;SDS011;64592;52.168;21.040;2023-02-01T06:15:00;2.03;;;1.83;;
75912;SDS011;64592;52.168;21.040;2023-02-01T06:20:02;7.18;;;2.03;;
75912;SDS011;64592;52.168;21.040;2023-02-01T06:25:06;8.27;;;2.47;;
75912;SDS011;64592;52.168;21.040;2023-02-01T06:30:10;7.35;;;2.55;;
75912;SDS011;64592;52.168;21.040;2023-02-01T06:35:13;7.30;;;2.92;;
75912;SDS011;64592;52.168;21.040;2023-02-01T06:40:18;9.32;;;2.85;;
75912;SDS011;64592;52.168;21.040;2023-02-01T06:45:20;7.85;;;2.50;;
75912;SDS011;64592;52.168;21.040;2023-02-01T06:50:21;9.50;;;2.90;;
75912;SDS011;64592;52.168;21.040;2023-02-01T06:55:24;11.93;;;2.97;;
75912;SDS011;64592;52.168;21.040;2023-02-01T07:00:26;8.57;;;2.75;;
75912;SDS011;64592;52.168;21.040;2023-02-01T07:05:28;10.18;;;2.88;;
75912;SDS011;64592;52.168;21.040;2023-02-01T07:10:31;5.38;;;2.25;;
75912;SDS011;64592;52.168;21.040;2023-02-01T07:15:32;5.25;;;2.45;;
75912;SDS011;64592;52.168;21.040;2023-02-01T07:20:34;7.57;;;3.00;;
75912;SDS011;64592;52.168;21.040;2023-02-01T07:25:37;5.50;;;2.40;;
75912;SDS011;64592;52.168;21.040;2023-02-01T07:30:39;3.38;;;2.05;;
75912;SDS011;64592;52.168;21.040;2023-02-01T07:35:41;9.60;;;2.42;;
75912;SDS011;64592;52.168;21.040;2023-02-01T07:40:44;13.48;;;4.03;;
75912;SDS011;64592;52.168;21.040;2023-02-01T07:45:50;6.28;;;2.97;;
75912;SDS011;64592;52.168;21.040;2023-02-01T07:50:56;17.67;;;4.10;;
75912;SDS011;64592;52.168;21.040;2023-02-01T07:56:01;11.18;;;2.40;;
75912;SDS011;64592;52.168;21.040;2023-02-01T08:01:03;8.05;;;2.15;;
75912;SDS011;64592;52.168;21.040;2023-02-01T08:06:24;5.95;;;1.75;;
75912;SDS011;64592;52.168;21.040;2023-02-01T08:11:28;6.78;;;2.53;;
75912;SDS011;64592;52.168;21.040;2023-02-01T08:16:29;2.63;;;1.67;;
75912;SDS011;64592;52.168;21.040;2023-02-01T08:21:31;11.57;;;2.53;;
75912;SDS011;64592;52.168;21.040;2023-02-01T08:26:38;9.88;;;2.08;;
75912;SDS011;64592;52.168;21.040;2023-02-01T08:31:40;2.20;;;1.77;;
75912;SDS011;64592;52.168;21.040;2023-02-01T08:36:43;9.98;;;2.70;;
75912;SDS011;64592;52.168;21.040;2023-02-01T08:41:46;6.43;;;2.13;;
75912;SDS011;64592;52.168;21.040;2023-02-01T08:47:08;7.40;;;2.50;;
75912;SDS011;64592;52.168;21.040;2023-02-01T08:52:10;9.05;;;2.95;;
75912;SDS011;64592;52.168;21.040;2023-02-01T08:57:13;5.85;;;2.53;;
75912;SDS011;64592;52.168;21.040;2023-02-01T09:02:15;6.93;;;2.90;;
75912;SDS011;64592;52.168;21.040;2023-02-01T09:07:20;7.82;;;2.67;;
75912;SDS011;64592;52.168;21.040;2023-02-01T09:12:23;8.93;;;1.92;;
75912;SDS011;64592;52.168;21.040;2023-02-01T09:17:24;2.75;;;1.75;;
75912;SDS011;64592;52.168;21.040;2023-02-01T09:22:26;4.00;;;2.13;;
75912;SDS011;64592;52.168;21.040;2023-02-01T09:27:29;8.20;;;2.75;;
75912;SDS011;64592;52.168;21.040;2023-02-01T09:32:31;9.20;;;2.08;;
75912;SDS011;64592;52.168;21.040;2023-02-01T09:37:32;6.30;;;2.33;;
75912;SDS011;64592;52.168;21.040;2023-02-01T09:42:42;10.52;;;3.17;;
75912;SDS011;64592;52.168;21.040;2023-02-01T09:48:01;2.38;;;1.83;;
75912;SDS011;64592;52.168;21.040;2023-02-01T09:53:11;10.35;;;3.15;;
75912;SDS011;64592;52.168;21.040;2023-02-01T09:58:20;9.02;;;3.10;;
75912;SDS011;64592;52.168;21.040;2023-02-01T10:03:29;10.00;;;2.72;;
75912;SDS011;64592;52.168;21.040;2023-02-01T10:08:33;12.20;;;3.80;;
75912;SDS011;64592;52.168;21.040;2023-02-01T10:13:46;5.18;;;2.70;;
75912;SDS011;64592;52.168;21.040;2023-02-01T10:19:02;9.15;;;2.90;;
75912;SDS011;64592;52.168;21.040;2023-02-01T10:29:39;7.22;;;2.47;;
75912;SDS011;64592;52.168;21.040;2023-02-01T10:34:42;8.82;;;3.25;;
75912;SDS011;64592;52.168;21.040;2023-02-01T10:39:48;5.63;;;1.60;;
75912;SDS011;64592;52.168;21.040;2023-02-01T10:44:52;5.28;;;2.22;;
75912;SDS011;64592;52.168;21.040;2023-02-01T10:49:59;8.55;;;2.95;;
75912;SDS011;64592;52.168;21.040;2023-02-01T10:55:28;7.47;;;3.30;;
75912;SDS011;64592;52.168;21.040;2023-02-01T11:00:39;12.10;;;4.10;;
75912;SDS011;64592;52.168;21.040;2023-02-01T11:05:45;10.95;;;2.83;;
75912;SDS011;64592;52.168;21.040;2023-02-01T11:10:55;4.82;;;2.47;;
75912;SDS011;64592;52.168;21.040;2023-02-01T11:16:00;6.18;;;2.38;;
75912;SDS011;64592;52.168;21.040;2023-02-01T11:21:04;7.85;;;3.22;;
75912;SDS011;64592;52.168;21.040;2023-02-01T11:26:11;8.52;;;2.33;;
75912;SDS011;64592;52.168;21.040;2023-02-01T11:31:16;14.32;;;3.67;;
75912;SDS011;64592;52.168;21.040;2023-02-01T11:36:20;8.48;;;2.53;;
75912;SDS011;64592;52.168;21.040;2023-02-01T11:41:27;6.78;;;2.33;;
75912;SDS011;64592;52.168;21.040;2023-02-01T11:46:31;12.55;;;3.25;;
75912;SDS011;64592;52.168;21.040;2023-02-01T11:51:38;7.10;;;2.53;;
75912;SDS011;64592;52.168;21.040;2023-02-01T11:56:49;11.35;;;2.83;;
75912;SDS011;64592;52.168;21.040;2023-02-01T12:02:15;3.83;;;2.22;;
75912;SDS011;64592;52.168;21.040;2023-02-01T12:07:34;5.35;;;2.03;;
75912;SDS011;64592;52.168;21.040;2023-02-01T12:12:51;12.88;;;3.58;;
75912;SDS011;64592;52.168;21.040;2023-02-01T12:18:16;4.80;;;3.08;;
75912;SDS011;64592;52.168;21.040;2023-02-01T12:23:43;6.40;;;3.25;;
75912;SDS011;64592;52.168;21.040;2023-02-01T12:29:05;7.78;;;3.30;;
75912;SDS011;64592;52.168;21.040;2023-02-01T12:34:34;15.57;;;4.38;;
75912;SDS011;64592;52.168;21.040;2023-02-01T12:39:48;8.05;;;2.90;;
75912;SDS011;64592;52.168;21.040;2023-02-01T12:44:54;7.72;;;3.35;;
75912;SDS011;64592;52.168;21.040;2023-02-01T12:50:03;15.95;;;5.45;;
75912;SDS011;64592;52.168;21.040;2023-02-01T12:55:15;11.88;;;3.45;;
75912;SDS011;64592;52.168;21.040;2023-02-01T13:00:25;18.35;;;4.72;;
75912;SDS011;64592;52.168;21.040;2023-02-01T13:05:45;18.33;;;3.78;;
75912;SDS011;64592;52.168;21.040;2023-02-01T13:10:59;12.15;;;3.90;;
75912;SDS011;64592;52.168;21.040;2023-02-01T13:16:06;16.20;;;4.35;;
75912;SDS011;64592;52.168;21.040;2023-02-01T13:21:18;5.07;;;2.63;;
75912;SDS011;64592;52.168;21.040;2023-02-01T13:26:25;4.75;;;2.42;;
75912;SDS011;64592;52.168;21.040;2023-02-01T13:37:04;12.50;;;4.18;;
75912;SDS011;64592;52.168;21.040;2023-02-01T13:42:18;12.77;;;4.85;;
75912;SDS011;64592;52.168;21.040;2023-02-01T13:47:26;9.15;;;4.22;;
75912;SDS011;64592;52.168;21.040;2023-02-01T13:52:37;14.93;;;5.03;;
75912;SDS011;64592;52.168;21.040;2023-02-01T13:57:41;7.45;;;3.92;;
75912;SDS011;64592;52.168;21.040;2023-02-01T14:08:22;14.20;;;3.75;;
75912;SDS011;64592;52.168;21.040;2023-02-01T14:13:27;12.88;;;4.38;;
75912;SDS011;64592;52.168;21.040;2023-02-01T14:24:02;5.80;;;3.30;;
75912;SDS011;64592;52.168;21.040;2023-02-01T14:29:21;16.50;;;3.08;;
75912;SDS011;64592;52.168;21.040;2023-02-01T14:34:31;9.70;;;5.70;;
75912;SDS011;64592;52.168;21.040;2023-02-01T14:39:49;9.07;;;3.60;;
75912;SDS011;64592;52.168;21.040;2023-02-01T14:44:56;13.85;;;3.50;;
75912;SDS011;64592;52.168;21.040;2023-02-01T14:50:36;4.05;;;2.92;;
75912;SDS011;64592;52.168;21.040;2023-02-01T14:55:43;5.80;;;2.20;;
75912;SDS011;64592;52.168;21.040;2023-02-01T15:00:47;8.90;;;3.83;;
75912;SDS011;64592;52.168;21.040;2023-02-01T15:05:55;5.03;;;2.42;;
75912;SDS011;64592;52.168;21.040;2023-02-01T15:11:00;6.60;;;2.97;;
75912;SDS011;64592;52.168;21.040;2023-02-01T15:16:09;6.28;;;3.20;;
75912;SDS011;64592;52.168;21.040;2023-02-01T15:21:16;10.88;;;4.00;;
75912;SDS011;64592;52.168;21.040;2023-02-01T15:26:27;5.63;;;3.25;;
75912;SDS011;64592;52.168;21.040;2023-02-01T15:31:31;9.05;;;3.60;;
75912;SDS011;64592;52.168;21.040;2023-02-01T15:36:34;3.67;;;3.08;;
75912;SDS011;64592;52.168;21.040;2023-02-01T15:41:38;5.40;;;4.72;;
75912;SDS011;64592;52.168;21.040;2023-02-01T15:46:42;11.57;;;5.10;;
75912;SDS011;64592;52.168;21.040;2023-02-01T15:51:46;13.30;;;5.45;;
75912;SDS011;64592;52.168;21.040;2023-02-01T15:56:50;11.10;;;4.00;;
75912;SDS011;64592;52.168;21.040;2023-02-01T16:01:54;7.43;;;3.63;;
75912;SDS011;64592;52.168;21.040;2023-02-01T16:06:57;4.53;;;3.60;;
75912;SDS011;64592;52.168;21.040;2023-02-01T16:12:02;5.90;;;3.58;;
75912;SDS011;64592;52.168;21.040;2023-02-01T16:17:05;6.82;;;3.58;;
75912;SDS011;64592;52.168;21.040;2023-02-01T16:22:09;6.97;;;3.05;;
75912;SDS011;64592;52.168;21.040;2023-02-01T16:27:12;5.85;;;3.78;;
75912;SDS011;64592;52.168;21.040;2023-02-01T16:32:15;7.30;;;4.25;;
75912;SDS011;64592;52.168;21.040;2023-02-01T16:37:19;9.80;;;5.18;;
75912;SDS011;64592;52.168;21.040;2023-02-01T16:42:23;9.10;;;3.72;;
75912;SDS011;64592;52.168;21.040;2023-02-01T16:47:25;9.07;;;5.10;;
75912;SDS011;64592;52.168;21.040;2023-02-01T16:52:27;8.90;;;5.05;;
75912;SDS011;64592;52.168;21.040;2023-02-01T16:57:30;5.95;;;4.47;;
75912;SDS011;64592;52.168;21.040;2023-02-01T17:02:32;5.57;;;4.55;;
75912;SDS011;64592;52.168;21.040;2023-02-01T17:07:33;10.27;;;5.40;;
75912;SDS011;64592;52.168;21.040;2023-02-01T17:12:39;9.63;;;5.10;;
75912;SDS011;64592;52.168;21.040;2023-02-01T17:17:41;4.57;;;3.78;;
75912;SDS011;64592;52.168;21.040;2023-02-01T17:22:43;9.60;;;6.45;;
75912;SDS011;64592;52.168;21.040;2023-02-01T17:27:46;9.07;;;5.25;;
75912;SDS011;64592;52.168;21.040;2023-02-01T17:32:48;7.60;;;4.40;;
75912;SDS011;64592;52.168;21.040;2023-02-01T17:37:50;10.48;;;5.68;;
75912;SDS011;64592;52.168;21.040;2023-02-01T17:42:53;7.03;;;4.75;;
75912;SDS011;64592;52.168;21.040;2023-02-01T17:47:56;8.35;;;4.97;;
75912;SDS011;64592;52.168;21.040;2023-02-01T17:52:58;12.73;;;6.45;;
75912;SDS011;64592;52.168;21.040;2023-02-01T17:58:03;7.18;;;5.03;;
75912;SDS011;64592;52.168;21.040;2023-02-01T18:03:05;7.80;;;4.32;;
75912;SDS011;64592;52.168;21.040;2023-02-01T18:08:07;8.27;;;3.95;;
75912;SDS011;64592;52.168;21.040;2023-02-01T18:13:10;8.40;;;4.15;;
75912;SDS011;64592;52.168;21.040;2023-02-01T18:18:12;7.43;;;3.95;;
75912;SDS011;64592;52.168;21.040;2023-02-01T18:23:14;7.78;;;4.60;;
75912;SDS011;64592;52.168;21.040;2023-02-01T18:28:19;8.13;;;4.00;;
75912;SDS011;64592;52.168;21.040;2023-02-01T18:33:21;11.68;;;5.18;;
75912;SDS011;64592;52.168;21.040;2023-02-01T18:38:23;8.93;;;4.25;;
75912;SDS011;64592;52.168;21.040;2023-02-01T18:43:26;10.68;;;4.70;;
75912;SDS011;64592;52.168;21.040;2023-02-01T18:48:28;4.85;;;3.35;;
75912;SDS011;64592;52.168;21.040;2023-02-01T18:53:30;8.18;;;3.30;;
75912;SDS011;64592;52.168;21.040;2023-02-01T18:58:33;8.60;;;4.22;;
75912;SDS011;64592;52.168;21.040;2023-02-01T19:03:35;11.57;;;4.38;;
75912;SDS011;64592;52.168;21.040;2023-02-01T19:08:37;7.28;;;3.08;;
75912;SDS011;64592;52.168;21.040;2023-02-01T19:13:40;9.13;;;4.95;;
75912;SDS011;64592;52.168;21.040;2023-02-01T19:18:41;8.15;;;3.63;;
75912;SDS011;64592;52.168;21.040;2023-02-01T19:23:43;7.50;;;4.35;;
75912;SDS011;64592;52.168;21.040;2023-02-01T19:28:46;6.35;;;3.80;;
75912;SDS011;64592;52.168;21.040;2023-02-01T19:33:48;8.27;;;4.18;;
75912;SDS011;64592;52.168;21.040;2023-02-01T19:38:50;8.38;;;3.83;;
75912;SDS011;64592;52.168;21.040;2023-02-01T19:43:53;10.70;;;4.10;;
75912;SDS011;64592;52.168;21.040;2023-02-01T19:48:54;8.50;;;4.63;;
75912;SDS011;64592;52.168;21.040;2023-02-01T19:53:56;12.68;;;4.88;;
75912;SDS011;64592;52.168;21.040;2023-02-01T19:58:59;11.00;;;4.35;;
75912;SDS011;64592;52.168;21.040;2023-02-01T20:04:01;7.53;;;4.20;;
75912;SDS011;64592;52.168;21.040;2023-02-01T20:09:03;9.43;;;4.80;;
75912;SDS011;64592;52.168;21.040;2023-02-01T20:14:07;7.80;;;4.40;;
75912;SDS011;64592;52.168;21.040;2023-02-01T20:19:10;11.05;;;5.28;;
75912;SDS011;64592;52.168;21.040;2023-02-01T20:24:12;11.15;;;5.07;;
75912;SDS011;64592;52.168;21.040;2023-02-01T20:29:18;10.63;;;4.40;;
75912;SDS011;64592;52.168;21.040;2023-02-01T20:34:20;10.48;;;4.90;;
75912;SDS011;64592;52.168;21.040;2023-02-01T20:39:21;7.35;;;4.10;;
75912;SDS011;64592;52.168;21.040;2023-02-01T20:44:24;10.18;;;3.90;;
75912;SDS011;64592;52.168;21.040;2023-02-01T20:49:26;8.80;;;4.80;;
75912;SDS011;64592;52.168;21.040;2023-02-01T20:54:28;7.82;;;4.10;;
75912;SDS011;64592;52.168;21.040;2023-02-01T20:59:31;10.07;;;4.93;;
75912;SDS011;64592;52.168;21.040;2023-02-01T21:04:32;10.27;;;4.53;;
75912;SDS011;64592;52.168;21.040;2023-02-01T21:09:34;12.00;;;4.93;;
75912;SDS011;64592;52.168;21.040;2023-02-01T21:14:41;7.78;;;4.40;;
75912;SDS011;64592;52.168;21.040;2023-02-01T21:19:42;13.18;;;5.50;;
75912;SDS011;64592;52.168;21.040;2023-02-01T21:24:44;8.30;;;4.22;;
75912;SDS011;64592;52.168;21.040;2023-02-01T21:29:47;8.63;;;4.38;;
75912;SDS011;64592;52.168;21.040;2023-02-01T21:34:49;7.38;;;4.68;;
75912;SDS011;64592;52.168;21.040;2023-02-01T21:39:51;10.75;;;5.53;;
75912;SDS011;64592;52.168;21.040;2023-02-01T21:44:56;11.95;;;4.85;;
75912;SDS011;64592;52.168;21.040;2023-02-01T21:49:58;14.25;;;4.28;;
75912;SDS011;64592;52.168;21.040;2023-02-01T21:55:00;10.00;;;5.25;;
75912;SDS011;64592;52.168;21.040;2023-02-01T22:00:04;9.90;;;3.63;;
75912;SDS011;64592;52.168;21.040;2023-02-01T22:05:07;11.23;;;4.97;;
75912;SDS011;64592;52.168;21.040;2023-02-01T22:10:10;9.07;;;4.00;;
75912;SDS011;64592;52.168;21.040;2023-02-01T22:15:14;6.30;;;4.22;;
75912;SDS011;64592;52.168;21.040;2023-02-01T22:20:16;6.75;;;3.35;;
75912;SDS011;64592;52.168;21.040;2023-02-01T22:25:18;9.35;;;5.43;;
75912;SDS011;64592;52.168;21.040;2023-02-01T22:30:21;12.65;;;4.55;;
75912;SDS011;64592;52.168;21.040;2023-02-01T22:35:23;6.32;;;4.32;;
75912;SDS011;64592;52.168;21.040;2023-02-01T22:40:25;13.88;;;4.53;;
75912;SDS011;64592;52.168;21.040;2023-02-01T22:45:28;9.05;;;4.20;;
75912;SDS011;64592;52.168;21.040;2023-02-01T22:50:30;10.27;;;4.53;;
75912;SDS011;64592;52.168;21.040;2023-02-01T22:55:32;9.55;;;4.78;;
75912;SDS011;64592;52.168;21.040;2023-02-01T23:00:35;9.73;;;4.70;;
75912;SDS011;64592;52.168;21.040;2023-02-01T23:05:36;4.97;;;3.13;;
75912;SDS011;64592;52.168;21.040;2023-02-01T23:10:38;8.65;;;4.47;;
75912;SDS011;64592;52.168;21.040;2023-02-01T23:15:41;6.68;;;3.53;;
75912;SDS011;64592;52.168;21.040;2023-02-01T23:20:43;7.18;;;4.18;;
75912;SDS011;64592;52.168;21.040;2023-02-01T23:25:48;8.45;;;4.72;;
75912;SDS011;64592;52.168;21.040;2023-02-01T23:30:52;8.93;;;4.72;;
75912;SDS011;64592;52.168;21.040;2023-02-01T23:35:54;10.00;;;5.85;;
75912;SDS011;64592;52.168;21.040;2023-02-01T23:40:57;10.50;;;5.50;;
75912;SDS011;64592;52.168;21.040;2023-02-01T23:46:01;7.85;;;5.10;;
75912;SDS011;64592;52.168;21.040;2023-02-01T23:51:03;8.30;;;4.35;;
75912;SDS011;64592;52.168;21.040;2023-02-01T23:56:05;8.73;;;5.30;;
